Time;durP1;ratioP1;P1;durP2;ratioP2;P2;SDS_P1;SDS_P2;PMS_P1;PMS_P2;Temp;Humidity;BMP_temperature;BMP_pressure;BME280_temperature;BME280_humidity;BME280_pressure;Samples;Min_cycle;Max_cycle;Signal;HPM_P1;HPM_P2
2024/01/22 00:00:53;;;;;;;13.43;9.43;;;1.70;70.80;-0.50;97241.00;;;;5068756;28;20457;-78
2024/01/22 00:03:20;;;;;;;11.50;8.57;;;1.70;70.80;-0.50;97231.00;;;;5074252;28;20442;-77
2024/01/22 00:05:50;;;;;;;11.50;8.77;;;1.70;71.60;-0.50;97235.00;;;;5068798;28;20474;-77
2024/01/22 00:08:17;;;;;;;13.40;8.93;;;1.60;70.90;-0.50;97233.00;;;;5061778;28;20470;-77
2024/01/22 00:10:45;;;;;;;13.80;9.53;;;1.60;70.80;-0.60;97230.00;;;;5075671;28;20537;-77
2024/01/22 00:13:12;;;;;;;12.77;8.73;;;1.60;70.70;-0.60;97229.00;;;;5069491;28;20470;-77
2024/01/22 00:15:41;;;;;;;11.50;9.13;;;1.60;70.80;-0.60;97228.00;;;;5071246;28;20904;-78
2024/01/22 00:18:08;;;;;;;11.60;8.30;;;1.60;70.90;-0.70;97221.00;;;;5071406;28;20568;-77
2024/01/22 00:20:35;;;;;;;11.60;8.90;;;1.60;70.80;-0.70;97218.00;;;;5071588;28;20503;-77
2024/01/22 00:23:02;;;;;;;11.10;8.90;;;1.50;70.60;-0.70;97213.00;;;;5071542;28;20510;-77
2024/01/22 00:25:30;;;;;;;12.03;8.50;;;1.50;70.60;-0.70;97207.00;;;;5068093;28;20969;-77
2024/01/22 00:27:57;;;;;;;12.43;8.40;;;1.50;70.60;-0.70;97206.00;;;;5071333;28;20890;-77
2024/01/22 00:30:25;;;;;;;10.00;8.23;;;1.50;70.70;-0.80;97196.00;;;;5063787;28;20476;-77
2024/01/22 00:32:53;;;;;;;14.40;9.70;;;1.40;70.60;-0.80;97201.00;;;;5066232;28;20561;-77
2024/01/22 00:35:21;;;;;;;12.47;9.03;;;1.40;70.60;-0.80;97197.00;;;;5087335;28;20481;-77
2024/01/22 00:37:50;;;;;;;11.90;9.00;;;1.40;70.70;-0.80;97198.00;;;;5071807;28;20864;-77
2024/01/22 00:40:17;;;;;;;14.63;8.57;;;1.40;70.70;-0.80;97200.00;;;;5071214;28;20466;-77
2024/01/22 00:42:44;;;;;;;11.47;8.63;;;1.40;70.80;-0.80;97189.00;;;;5072495;28;20473;-77
2024/01/22 00:45:12;;;;;;;11.97;9.37;;;1.40;70.80;-0.90;97185.00;;;;5069926;28;20450;-77
2024/01/22 00:47:40;;;;;;;12.67;9.07;;;1.30;70.60;-0.90;97187.00;;;;5072051;28;20922;-77
2024/01/22 00:50:10;;;;;;;13.17;8.67;;;1.30;70.60;-0.90;97184.00;;;;5070816;28;20502;-77
2024/01/22 00:52:39;;;;;;;14.20;9.07;;;1.30;70.50;-0.90;97180.00;;;;5070789;28;20533;-77
2024/01/22 00:55:08;;;;;;;13.30;8.97;;;1.30;70.50;-0.90;97175.00;;;;5071059;28;21056;-77
2024/01/22 00:57:37;;;;;;;11.47;8.87;;;1.30;70.50;-1.00;97182.00;;;;5069446;28;20450;-77
2024/01/22 01:00:06;;;;;;;14.13;8.90;;;1.20;70.40;-1.00;97190.00;;;;5069132;28;20561;-77
2024/01/22 01:02:33;;;;;;;12.17;8.40;;;1.30;70.50;-1.00;97180.00;;;;5074851;28;20476;-77
2024/01/22 01:05:01;;;;;;;11.93;9.17;;;1.20;70.30;-1.00;97174.00;;;;5070387;28;20958;-77
2024/01/22 01:07:29;;;;;;;11.83;8.70;;;1.20;70.50;-1.00;97179.00;;;;5069430;28;20525;-77
2024/01/22 01:09:56;;;;;;;13.03;8.87;;;1.20;70.40;-1.00;97177.00;;;;5070945;28;20987;-77
2024/01/22 01:12:24;;;;;;;14.07;8.40;;;1.20;70.40;-1.00;97183.00;;;;5070834;28;20538;-77
2024/01/22 01:14:51;;;;;;;10.80;8.30;;;1.20;70.50;-1.10;97179.00;;;;5069902;28;20825;-76
2024/01/22 01:17:18;;;;;;;11.87;8.10;;;1.20;70.40;-1.10;97177.00;;;;5074622;28;20849;-77
2024/01/22 01:19:45;;;;;;;11.87;7.60;;;1.10;70.40;-1.10;97177.00;;;;5073720;28;20458;-77
2024/01/22 01:22:13;;;;;;;10.20;7.93;;;1.10;70.40;-1.10;97171.00;;;;5074861;28;20434;-77
2024/01/22 01:24:42;;;;;;;9.53;7.60;;;1.10;70.30;-1.10;97157.00;;;;5075067;28;20513;-77
2024/01/22 01:27:09;;;;;;;10.03;7.37;;;1.10;70.20;-1.20;97155.00;;;;5083770;28;20508;-77
2024/01/22 01:29:40;;;;;;;10.80;8.30;;;1.00;70.20;-1.20;97152.00;;;;5074482;28;20565;-77
2024/01/22 01:32:09;;;;;;;11.27;7.97;;;1.00;70.20;-1.20;97151.00;;;;5074800;28;20457;-77
2024/01/22 01:34:36;;;;;;;11.00;8.07;;;1.00;70.40;-1.20;97145.00;;;;5074568;28;20465;-77
2024/01/22 01:37:04;;;;;;;8.90;7.37;;;1.10;70.60;-1.20;97148.00;;;;5074455;28;20446;-77
2024/01/22 01:39:32;;;;;;;10.70;7.40;;;1.00;70.50;-1.20;97149.00;;;;5074680;28;20556;-77
2024/01/22 01:42:00;;;;;;;10.20;8.00;;;1.00;70.40;-1.20;97136.00;;;;5075588;28;20704;-77
2024/01/22 01:44:52;;;;;;;12.23;8.30;;;1.00;70.50;-1.30;97127.00;;;;5073371;28;20438;-77
2024/01/22 01:47:20;;;;;;;10.03;7.63;;;1.00;70.30;-1.30;97121.00;;;;5067340;28;20491;-77
2024/01/22 01:49:49;;;;;;;12.60;8.67;;;1.00;70.40;-1.30;97113.00;;;;5072873;28;20461;-76
2024/01/22 01:52:19;;;;;;;9.43;7.33;;;0.90;70.30;-1.30;97106.00;;;;5066636;28;20469;-77
2024/01/22 01:54:52;;;;;;;11.10;7.27;;;0.90;70.20;-1.30;97104.00;;;;5072453;28;20523;-77
2024/01/22 01:57:22;;;;;;;10.77;7.90;;;0.90;70.20;-1.30;97098.00;;;;5071511;28;20474;-76
2024/01/22 01:59:51;;;;;;;10.67;7.97;;;0.90;70.20;-1.30;97104.00;;;;5072645;28;21027;-76
2024/01/22 02:02:20;;;;;;;10.73;7.57;;;0.90;70.20;-1.40;97091.00;;;;5070852;28;20451;-76
2024/01/22 02:04:47;;;;;;;10.33;7.53;;;0.90;70.20;-1.40;97092.00;;;;5074073;28;20446;-76
2024/01/22 02:07:14;;;;;;;10.47;7.40;;;0.80;70.20;-1.40;97092.00;;;;5074994;28;20435;-77
2024/01/22 02:09:51;;;;;;;9.67;7.67;;;0.80;70.40;-1.40;97086.00;;;;5074590;28;20500;-76
2024/01/22 02:12:20;;;;;;;10.17;7.63;;;0.80;70.20;-1.40;97089.00;;;;5067577;28;20446;-76
2024/01/22 02:14:48;;;;;;;8.20;7.03;;;0.80;70.30;-1.40;97096.00;;;;5064976;28;20498;-76
2024/01/22 02:17:16;;;;;;;8.87;7.60;;;0.80;70.30;-1.40;97090.00;;;;5071102;28;20442;-76
2024/01/22 02:19:43;;;;;;;9.60;7.67;;;0.80;70.40;-1.50;97094.00;;;;5074351;28;20465;-76
2024/01/22 02:22:11;;;;;;;10.30;7.87;;;0.70;70.30;-1.40;97088.00;;;;5072026;28;20455;-76
2024/01/22 02:24:40;;;;;;;12.90;7.53;;;0.80;70.50;-1.40;97086.00;;;;5068749;28;20860;-76
2024/01/22 02:27:07;;;;;;;11.17;8.23;;;0.80;70.50;-1.40;97082.00;;;;5069688;28;20523;-76
2024/01/22 02:29:34;;;;;;;14.33;8.17;;;0.80;70.50;-1.50;97075.00;;;;5071490;28;20592;-76
2024/01/22 02:32:01;;;;;;;11.53;7.90;;;0.80;70.50;-1.50;97072.00;;;;5072084;28;20541;-77
2024/01/22 02:34:28;;;;;;;11.63;8.43;;;0.80;70.50;-1.40;97059.00;;;;5076952;28;20474;-77
2024/01/22 02:36:56;;;;;;;10.33;7.47;;;0.80;70.50;-1.50;97063.00;;;;5073678;28;20474;-76
2024/01/22 02:39:23;;;;;;;11.50;8.37;;;0.80;70.40;-1.50;97055.00;;;;5073499;28;20918;-77
2024/01/22 02:41:51;;;;;;;12.53;8.47;;;0.80;70.40;-1.50;97050.00;;;;5071948;28;20431;-76
2024/01/22 02:44:19;;;;;;;13.27;8.43;;;0.70;70.30;-1.50;97045.00;;;;5066360;28;20935;-76
2024/01/22 02:46:46;;;;;;;11.27;8.23;;;0.70;70.30;-1.50;97045.00;;;;5072014;28;20530;-76
2024/01/22 02:49:13;;;;;;;10.70;8.17;;;0.70;70.20;-1.50;97042.00;;;;5071634;28;20497;-76
2024/01/22 02:51:44;;;;;;;10.57;8.20;;;0.70;70.40;-1.50;97039.00;;;;5071601;28;20476;-76
2024/01/22 02:54:12;;;;;;;11.07;8.80;;;0.70;70.40;-1.50;97025.00;;;;5070656;28;20466;-76
2024/01/22 02:56:39;;;;;;;11.40;8.43;;;0.70;70.40;-1.50;97027.00;;;;5071769;28;20626;-76
2024/01/22 02:59:08;;;;;;;11.00;8.47;;;0.70;70.30;-1.50;97027.00;;;;5071772;28;20458;-76
2024/01/22 03:01:36;;;;;;;14.33;9.73;;;0.70;70.40;-1.50;97026.00;;;;5074890;28;20446;-76
2024/01/22 03:04:03;;;;;;;14.10;9.07;;;0.70;70.50;-1.60;97020.00;;;;5072712;28;20997;-76
2024/01/22 03:06:30;;;;;;;14.83;9.87;;;0.70;70.40;-1.50;97009.00;;;;5073232;28;20896;-76
2024/01/22 03:08:57;;;;;;;13.07;8.70;;;0.70;70.40;-1.60;97009.00;;;;5072519;28;20549;-76
2024/01/22 03:11:25;;;;;;;16.20;9.83;;;0.60;70.30;-1.60;97004.00;;;;5072749;28;20546;-76
2024/01/22 03:13:58;;;;;;;14.10;9.90;;;0.70;70.30;-1.60;96999.00;;;;5072539;28;20501;-76
2024/01/22 03:16:26;;;;;;;16.67;10.33;;;0.70;70.20;-1.60;96991.00;;;;5072778;28;21004;-77
2024/01/22 03:18:54;;;;;;;13.50;9.33;;;0.60;70.10;-1.60;96988.00;;;;5071469;28;20462;-76
2024/01/22 03:21:21;;;;;;;13.13;9.57;;;0.60;70.20;-1.60;96987.00;;;;5072786;28;20500;-76
2024/01/22 03:23:50;;;;;;;14.10;9.70;;;0.60;70.30;-1.60;96993.00;;;;5072182;28;20462;-76
2024/01/22 03:26:21;;;;;;;14.77;10.20;;;0.70;70.50;-1.60;96986.00;;;;5065409;28;20458;-77
2024/01/22 03:28:50;;;;;;;16.20;10.30;;;0.60;70.40;-1.60;96978.00;;;;5072740;28;20478;-76
2024/01/22 03:31:23;;;;;;;12.27;9.20;;;0.60;70.40;-1.60;96987.00;;;;5064670;28;20438;-76
2024/01/22 03:33:51;;;;;;;14.00;8.97;;;0.60;71.10;-1.60;96981.00;;;;5072229;28;20509;-76
2024/01/22 03:36:19;;;;;;;15.17;9.17;;;0.60;70.30;-1.60;96980.00;;;;5065508;28;20966;-76
2024/01/22 03:38:47;;;;;;;16.60;9.10;;;0.60;70.30;-1.60;96986.00;;;;5071930;28;20471;-76
2024/01/22 03:41:16;;;;;;;12.83;8.83;;;0.60;70.30;-1.70;96979.00;;;;5070547;28;20473;-76
2024/01/22 03:43:45;;;;;;;13.03;7.73;;;0.60;70.50;-1.60;96977.00;;;;5070869;28;20503;-76
2024/01/22 03:46:17;;;;;;;12.70;8.67;;;0.60;70.50;-1.70;96972.00;;;;5069172;28;20488;-76
2024/01/22 03:48:45;;;;;;;10.90;8.33;;;0.60;70.40;-1.70;96970.00;;;;5071171;28;20489;-76
2024/01/22 03:51:14;;;;;;;11.77;9.10;;;0.60;70.40;-1.70;96964.00;;;;5070227;28;21154;-76
2024/01/22 03:53:41;;;;;;;11.33;8.17;;;0.60;70.30;-1.70;96961.00;;;;5069839;28;20469;-76
2024/01/22 03:56:09;;;;;;;12.73;7.93;;;0.60;70.40;-1.70;96962.00;;;;5069219;28;20828;-76
2024/01/22 03:58:36;;;;;;;12.10;7.87;;;0.60;70.30;-1.70;96961.00;;;;5071753;28;20462;-76
2024/01/22 04:01:03;;;;;;;13.23;8.80;;;0.60;70.20;-1.70;96956.00;;;;5071657;28;20446;-76
2024/01/22 04:03:32;;;;;;;10.80;8.57;;;0.60;70.30;-1.60;96963.00;;;;5077197;28;20489;-76
2024/01/22 04:06:01;;;;;;;10.90;7.07;;;0.60;70.50;-1.60;96948.00;;;;5071736;28;20950;-76
2024/01/22 04:08:30;;;;;;;11.47;7.70;;;0.60;70.40;-1.60;96946.00;;;;5071891;28;20508;-76
2024/01/22 04:10:57;;;;;;;10.97;7.87;;;0.60;70.40;-1.60;96943.00;;;;5075315;28;20518;-76
2024/01/22 04:13:24;;;;;;;11.23;8.30;;;0.60;71.30;-1.60;96934.00;;;;5071653;28;20975;-76
2024/01/22 04:15:54;;;;;;;11.30;7.30;;;0.60;70.50;-1.60;96922.00;;;;5073623;28;20527;-76
2024/01/22 04:18:21;;;;;;;8.57;6.77;;;0.70;70.50;-1.60;96918.00;;;;5066474;28;20453;-76
2024/01/22 04:20:48;;;;;;;12.20;6.57;;;0.60;71.30;-1.60;96917.00;;;;5072011;28;20864;-76
2024/01/22 04:23:15;;;;;;;8.53;6.90;;;0.60;70.70;-1.50;96912.00;;;;5070906;28;20450;-76
2024/01/22 04:25:44;;;;;;;10.10;6.60;;;0.70;70.80;-1.50;96905.00;;;;5071331;28;20452;-76
2024/01/22 04:28:11;;;;;;;10.87;7.03;;;0.70;70.80;-1.50;96906.00;;;;5070525;28;20477;-76
2024/01/22 04:30:38;;;;;;;8.53;6.07;;;0.70;70.80;-1.40;96899.00;;;;5061637;28;20504;-76
2024/01/22 04:33:06;;;;;;;9.73;6.23;;;0.80;70.80;-1.40;96893.00;;;;5068345;28;20517;-76
2024/01/22 04:35:33;;;;;;;7.30;5.47;;;0.70;70.80;-1.40;96881.00;;;;5068200;28;20463;-76
2024/01/22 04:38:00;;;;;;;6.93;5.57;;;0.80;70.80;-1.40;96879.00;;;;5071301;28;20474;-76
2024/01/22 04:40:28;;;;;;;6.70;5.57;;;0.80;70.80;-1.40;96874.00;;;;5067041;28;20507;-76
2024/01/22 04:42:59;;;;;;;6.10;5.00;;;0.80;70.80;-1.30;96872.00;;;;5067102;28;20442;-76
2024/01/22 04:45:26;;;;;;;6.50;5.10;;;0.90;70.90;-1.30;96865.00;;;;5068571;28;20525;-76
2024/01/22 04:47:55;;;;;;;4.63;4.03;;;0.80;70.90;-1.30;96872.00;;;;5068246;28;20449;-76
2024/01/22 04:50:22;;;;;;;4.90;4.00;;;0.90;71.00;-1.20;96874.00;;;;5068955;28;20497;-76
2024/01/22 04:52:49;;;;;;;5.00;4.20;;;0.90;71.10;-1.20;96877.00;;;;5071109;28;20448;-76
2024/01/22 04:55:17;;;;;;;4.53;3.87;;;1.00;71.10;-1.20;96868.00;;;;5070522;28;20563;-76
2024/01/22 04:57:44;;;;;;;4.30;3.90;;;1.00;71.10;-1.10;96865.00;;;;5071666;28;20481;-76
2024/01/22 05:00:14;;;;;;;4.83;4.33;;;1.00;71.10;-1.10;96869.00;;;;5070397;28;21068;-76
2024/01/22 05:02:41;;;;;;;6.20;4.57;;;1.00;71.10;-1.10;96859.00;;;;5065869;28;20462;-76
2024/01/22 05:05:09;;;;;;;3.80;3.40;;;1.00;71.80;-1.00;96860.00;;;;5065644;28;20481;-76
2024/01/22 05:07:36;;;;;;;4.67;3.60;;;1.10;71.10;-1.00;96858.00;;;;5069863;28;20482;-76
2024/01/22 05:10:05;;;;;;;3.00;2.80;;;1.10;71.20;-1.00;96856.00;;;;5069448;28;20573;-76
2024/01/22 05:12:33;;;;;;;4.17;3.40;;;1.10;71.20;-0.90;96855.00;;;;5067098;28;20978;-76
2024/01/22 05:15:00;;;;;;;3.00;2.80;;;1.20;71.40;-0.90;96860.00;;;;5069734;28;20509;-76
2024/01/22 05:17:29;;;;;;;3.87;3.23;;;1.20;71.40;-0.90;96856.00;;;;5071108;28;20496;-76
2024/01/22 05:19:56;;;;;;;3.17;2.73;;;1.30;71.50;-0.80;96847.00;;;;5076706;28;20623;-76
2024/01/22 05:22:23;;;;;;;3.20;2.70;;;1.30;71.50;-0.80;96857.00;;;;5070751;28;20967;-76
2024/01/22 05:24:50;;;;;;;3.17;2.87;;;1.30;71.50;-0.70;96851.00;;;;5079383;28;20442;-76
2024/01/22 05:27:19;;;;;;;3.00;2.70;;;1.40;71.50;-0.70;96866.00;;;;5064067;28;20533;-76
2024/01/22 05:29:46;;;;;;;2.80;2.40;;;1.40;71.40;-0.60;96881.00;;;;5069879;28;20466;-77
2024/01/22 05:32:13;;;;;;;2.10;1.90;;;1.40;71.40;-0.60;96891.00;;;;5070326;28;20492;-76
2024/01/22 05:34:42;;;;;;;2.33;2.13;;;1.50;71.40;-0.60;96878.00;;;;5069061;28;20498;-76
2024/01/22 05:37:09;;;;;;;2.37;2.17;;;1.60;71.50;-0.50;96875.00;;;;5068815;28;20462;-76
2024/01/22 05:39:37;;;;;;;2.10;1.90;;;1.60;71.60;-0.40;96890.00;;;;5068941;28;21037;-76
2024/01/22 05:42:05;;;;;;;2.67;2.00;;;1.60;71.60;-0.40;96879.00;;;;5069100;28;20446;-76
2024/01/22 05:44:32;;;;;;;2.30;2.10;;;1.70;71.60;-0.30;96886.00;;;;5067789;28;20438;-76
2024/01/22 05:47:00;;;;;;;3.00;2.00;;;1.80;71.70;-0.30;96881.00;;;;5068418;28;20530;-77
2024/01/22 05:49:28;;;;;;;2.07;1.97;;;1.80;71.60;-0.20;96887.00;;;;5069444;28;20978;-76
2024/01/22 05:51:56;;;;;;;2.70;2.50;;;1.80;71.60;-0.20;96886.00;;;;5066642;28;20814;-76
2024/01/22 05:54:25;;;;;;;2.33;2.13;;;1.90;71.50;-0.20;96888.00;;;;5067039;28;20474;-77
2024/01/22 05:56:52;;;;;;;2.43;2.33;;;1.90;71.40;-0.20;96872.00;;;;5070590;28;20530;-76
2024/01/22 05:59:20;;;;;;;2.90;2.20;;;1.90;71.30;-0.10;96889.00;;;;5072848;28;20524;-76
2024/01/22 06:01:47;;;;;;;2.30;2.07;;;1.90;71.20;-0.10;96882.00;;;;5079022;28;20445;-76
2024/01/22 06:04:15;;;;;;;3.83;1.93;;;1.90;71.20;-0.10;96867.00;;;;5075233;28;20466;-76
2024/01/22 06:06:43;;;;;;;3.53;2.63;;;1.90;71.10;-0.10;96861.00;;;;5077940;28;20529;-76
2024/01/22 06:09:11;;;;;;;3.27;2.37;;;2.00;71.20;-0.10;96863.00;;;;5071818;28;20569;-76
2024/01/22 06:11:39;;;;;;;2.43;2.17;;;2.00;71.30;-0.10;96855.00;;;;5072003;28;20443;-77
2024/01/22 06:14:07;;;;;;;2.97;2.27;;;2.00;71.30;0.00;96867.00;;;;5065259;28;20527;-76
2024/01/22 06:16:34;;;;;;;3.60;2.30;;;2.00;71.30;0.00;96855.00;;;;5073673;28;20903;-76
2024/01/22 06:19:01;;;;;;;2.60;2.20;;;2.10;71.40;0.00;96855.00;;;;5073759;28;20516;-76
2024/01/22 06:21:29;;;;;;;3.13;2.50;;;2.10;71.40;0.10;96844.00;;;;5073990;28;20435;-76
2024/01/22 06:23:56;;;;;;;3.40;2.77;;;2.10;71.40;0.10;96852.00;;;;5067150;28;20545;-76
2024/01/22 06:26:24;;;;;;;3.00;2.60;;;2.10;71.20;0.10;96860.00;;;;5073388;28;20469;-77
2024/01/22 06:28:52;;;;;;;2.60;2.30;;;2.20;71.40;0.20;96852.00;;;;5072377;28;20527;-76
2024/01/22 06:31:20;;;;;;;2.97;2.30;;;2.20;71.40;0.20;96847.00;;;;5071126;28;20450;-76
2024/01/22 06:33:47;;;;;;;3.67;2.83;;;2.30;71.40;0.20;96842.00;;;;5076846;28;20552;-76
2024/01/22 06:36:15;;;;;;;3.97;2.97;;;2.20;71.40;0.20;96832.00;;;;5072851;28;20458;-77
2024/01/22 06:38:43;;;;;;;3.83;2.80;;;2.20;71.20;0.20;96837.00;;;;5073691;28;20480;-76
2024/01/22 06:41:11;;;;;;;3.13;1.93;;;2.30;71.20;0.30;96824.00;;;;5069811;28;20447;-76
2024/01/22 06:43:40;;;;;;;3.57;2.17;;;2.20;71.10;0.30;96827.00;;;;5067044;28;20450;-76
2024/01/22 06:46:07;;;;;;;2.27;2.07;;;2.30;71.10;0.30;96825.00;;;;5072795;28;20443;-76
2024/01/22 06:48:35;;;;;;;3.13;2.30;;;2.40;71.30;0.40;96810.00;;;;5072610;28;20463;-76
2024/01/22 06:51:05;;;;;;;3.03;2.27;;;2.40;71.30;0.40;96819.00;;;;5073904;28;21013;-76
2024/01/22 06:53:33;;;;;;;2.63;2.03;;;2.50;71.30;0.40;96821.00;;;;5073962;28;20474;-77
2024/01/22 06:56:01;;;;;;;1.93;1.70;;;2.50;71.20;0.50;96820.00;;;;5064934;28;20466;-77
2024/01/22 06:58:28;;;;;;;2.57;2.10;;;2.50;71.00;0.50;96817.00;;;;5078706;28;20504;-77
2024/01/22 07:00:57;;;;;;;2.83;2.60;;;2.60;71.30;0.50;96808.00;;;;5072082;28;20446;-76
2024/01/22 07:03:24;;;;;;;2.63;2.43;;;2.60;70.90;0.50;96809.00;;;;5076890;28;20923;-75
2024/01/22 07:05:52;;;;;;;2.87;2.37;;;2.60;70.80;0.50;96824.00;;;;5073410;28;21013;-77
2024/01/22 07:08:20;;;;;;;2.83;2.47;;;2.70;70.80;0.50;96814.00;;;;5071713;28;20450;-77
2024/01/22 07:10:48;;;;;;;2.70;2.50;;;2.70;70.80;0.60;96816.00;;;;5071600;28;20473;-77
2024/01/22 07:13:16;;;;;;;2.77;2.23;;;2.70;70.80;0.60;96822.00;;;;5072512;28;20443;-77
2024/01/22 07:15:43;;;;;;;2.20;1.93;;;2.70;70.80;0.70;96826.00;;;;5072990;28;20462;-77
2024/01/22 07:18:12;;;;;;;2.73;2.00;;;2.80;71.10;0.80;96826.00;;;;5071304;28;20958;-77
2024/01/22 07:20:40;;;;;;;2.10;1.90;;;2.80;71.00;0.80;96824.00;;;;5071533;28;20451;-77
2024/01/22 07:23:08;;;;;;;2.10;1.90;;;2.90;71.10;0.90;96830.00;;;;5077071;28;20481;-77
2024/01/22 07:25:37;;;;;;;2.30;2.10;;;2.90;71.10;0.90;96819.00;;;;5078464;28;20451;-77
2024/01/22 07:28:04;;;;;;;1.70;1.60;;;3.00;71.20;1.00;96826.00;;;;5073288;28;20460;-77
2024/01/22 07:30:32;;;;;;;2.97;1.97;;;3.10;71.10;1.10;96811.00;;;;5070572;28;20863;-76
2024/01/22 07:32:59;;;;;;;1.87;1.60;;;3.10;71.70;1.10;96826.00;;;;5071381;28;20495;-77
2024/01/22 07:35:28;;;;;;;2.10;1.90;;;3.20;71.00;1.20;96830.00;;;;5069964;28;20898;-77
2024/01/22 07:37:55;;;;;;;1.70;1.57;;;3.20;71.00;1.30;96836.00;;;;5071033;28;20470;-77
2024/01/22 07:40:24;;;;;;;1.60;1.50;;;3.30;71.10;1.30;96835.00;;;;5069870;28;20504;-77
2024/01/22 07:42:51;;;;;;;2.03;1.83;;;3.30;71.00;1.30;96838.00;;;;5070992;28;21000;-77
2024/01/22 07:45:18;;;;;;;3.17;2.20;;;3.40;70.90;1.40;96843.00;;;;5071416;28;20530;-77
2024/01/22 07:47:45;;;;;;;2.03;1.93;;;3.40;70.80;1.40;96836.00;;;;5067122;28;20488;-77
2024/01/22 07:50:14;;;;;;;1.80;1.70;;;3.50;70.90;1.40;96850.00;;;;5064016;28;21104;-77
2024/01/22 07:52:43;;;;;;;2.63;2.43;;;3.50;70.90;1.50;96858.00;;;;5066715;28;21082;-77
2024/01/22 07:55:13;;;;;;;2.17;1.90;;;3.50;71.00;1.60;96836.00;;;;5070445;28;20462;-77
2024/01/22 07:57:43;;;;;;;2.80;2.30;;;3.60;71.10;1.70;96838.00;;;;5074705;28;20951;-77
2024/01/22 08:00:12;;;;;;;2.27;2.07;;;3.70;71.40;1.80;96844.00;;;;5071175;28;20504;-78
2024/01/22 08:02:40;;;;;;;2.53;2.33;;;3.70;71.40;1.90;96842.00;;;;5074086;28;20446;-78
2024/01/22 08:05:12;;;;;;;2.30;1.93;;;3.80;71.40;1.90;96844.00;;;;5072884;28;20503;-78
2024/01/22 08:07:43;;;;;;;2.40;2.10;;;3.90;71.50;2.10;96839.00;;;;5075323;28;20457;-78
2024/01/22 08:10:11;;;;;;;3.00;2.70;;;4.00;71.80;2.20;96832.00;;;;5072146;28;20565;-78
2024/01/22 08:12:38;;;;;;;2.60;2.07;;;4.10;71.70;2.30;96842.00;;;;5072783;28;20664;-78
2024/01/22 08:15:06;;;;;;;4.70;2.37;;;4.20;71.70;2.40;96836.00;;;;5072519;28;20234;-78
2024/01/22 08:17:35;;;;;;;3.53;2.63;;;4.30;71.60;2.50;96834.00;;;;5073294;28;20226;-78
2024/01/22 08:20:05;;;;;;;2.47;2.03;;;4.40;71.60;2.60;96845.00;;;;5071891;28;20696;-78
2024/01/22 08:22:32;;;;;;;2.60;2.40;;;4.50;71.70;2.70;96840.00;;;;5070815;28;20641;-79
2024/01/22 08:25:00;;;;;;;2.27;2.07;;;4.60;71.80;2.80;96861.00;;;;5070355;28;20273;-79
2024/01/22 08:27:28;;;;;;;4.27;3.23;;;4.70;71.60;2.90;96857.00;;;;5071858;28;20290;-82
2024/01/22 08:29:56;;;;;;;6.50;4.37;;;4.80;71.70;3.00;96867.00;;;;5074875;28;20243;-81
2024/01/22 08:32:23;;;;;;;7.63;5.47;;;4.90;71.50;3.10;96853.00;;;;5077030;28;20192;-81
2024/01/22 08:34:51;;;;;;;9.17;6.10;;;5.00;71.40;3.20;96871.00;;;;5076524;28;20664;-81
2024/01/22 08:37:18;;;;;;;8.33;5.67;;;5.10;72.00;3.30;96859.00;;;;5077081;28;20543;-81
2024/01/22 08:39:45;;;;;;;9.23;5.93;;;5.20;71.30;3.40;96838.00;;;;5075557;28;20582;-81
2024/01/22 08:42:14;;;;;;;9.53;5.83;;;5.30;71.00;3.50;96850.00;;;;5077568;28;20227;-81
2024/01/22 08:44:41;;;;;;;11.63;7.43;;;5.40;70.80;3.60;96846.00;;;;5073695;28;20660;-81
2024/01/22 08:47:09;;;;;;;8.27;6.13;;;5.40;70.80;3.70;96853.00;;;;5076221;28;20683;-81
2024/01/22 08:49:37;;;;;;;12.00;8.63;;;5.50;70.80;3.80;96846.00;;;;5086232;28;20647;-81
2024/01/22 08:52:05;;;;;;;12.27;7.70;;;5.60;70.80;3.80;96855.00;;;;5076774;28;20249;-81
2024/01/22 08:54:32;;;;;;;8.10;5.90;;;5.70;70.60;3.90;96838.00;;;;5079426;28;20245;-81
2024/01/22 08:57:01;;;;;;;5.50;4.30;;;5.80;70.30;4.00;96840.00;;;;5079672;28;20216;-81
2024/01/22 08:59:30;;;;;;;8.27;5.30;;;5.90;70.10;4.10;96841.00;;;;5074991;28;20258;-81
2024/01/22 09:01:57;;;;;;;7.23;4.17;;;5.90;69.90;4.20;96851.00;;;;5080611;28;20199;-81
2024/01/22 09:04:24;;;;;;;5.33;4.30;;;6.00;69.90;4.30;96848.00;;;;5076969;28;20219;-82
2024/01/22 09:06:58;;;;;;;5.50;4.33;;;6.10;69.90;4.30;96841.00;;;;5077120;28;20249;-81
2024/01/22 09:09:27;;;;;;;5.00;4.50;;;6.20;69.50;4.40;96846.00;;;;5076765;28;20302;-81
2024/01/22 09:11:54;;;;;;;5.80;4.27;;;6.20;69.90;4.50;96843.00;;;;5076467;28;20208;-81
2024/01/22 09:14:21;;;;;;;6.63;3.80;;;6.30;69.80;4.60;96835.00;;;;5081633;28;20265;-81
2024/01/22 09:16:50;;;;;;;7.57;4.50;;;6.40;70.40;4.60;96849.00;;;;5075778;28;20434;-81
2024/01/22 09:19:17;;;;;;;4.10;3.70;;;6.40;69.60;4.70;96849.00;;;;5077524;28;20216;-82
2024/01/22 09:21:49;;;;;;;4.37;3.50;;;6.40;69.40;4.80;96843.00;;;;5076757;28;20653;-81
2024/01/22 09:24:17;;;;;;;3.40;3.10;;;6.60;69.10;4.80;96849.00;;;;5077619;28;20643;-81
2024/01/22 09:26:45;;;;;;;5.07;3.73;;;6.60;69.30;4.90;96843.00;;;;5084102;28;20199;-82
2024/01/22 09:29:13;;;;;;;7.00;3.90;;;6.60;69.40;5.00;96842.00;;;;5079532;28;20228;-81
2024/01/22 09:31:40;;;;;;;4.50;3.50;;;6.70;69.10;5.00;96835.00;;;;5076590;28;20200;-81
2024/01/22 09:34:10;;;;;;;4.03;2.90;;;6.80;68.90;5.00;96838.00;;;;5078854;28;20226;-81
2024/01/22 09:36:37;;;;;;;7.50;3.53;;;6.80;69.10;5.10;96837.00;;;;5083315;28;20262;-82
2024/01/22 09:39:05;;;;;;;4.17;3.03;;;6.80;69.30;5.10;96835.00;;;;5079389;28;20212;-81
2024/01/22 09:41:33;;;;;;;3.97;3.33;;;6.90;69.20;5.20;96836.00;;;;5068751;28;20191;-82
2024/01/22 09:44:01;;;;;;;7.43;3.50;;;6.90;69.40;5.30;96836.00;;;;5081573;28;20740;-81
2024/01/22 09:46:29;;;;;;;4.53;3.20;;;7.00;69.50;5.30;96834.00;;;;5082707;28;20192;-82
2024/01/22 09:48:58;;;;;;;8.17;3.63;;;7.00;69.70;5.40;96836.00;;;;5081558;28;20203;-82
2024/01/22 09:51:28;;;;;;;4.27;3.47;;;7.10;69.40;5.40;96825.00;;;;5089044;28;20560;-81
2024/01/22 09:54:06;;;;;;;5.20;3.50;;;7.10;69.30;5.50;96812.00;;;;5084307;28;20188;-81
2024/01/22 09:56:37;;;;;;;5.20;3.10;;;7.20;69.40;5.50;96810.00;;;;5087735;28;20281;-82
2024/01/22 09:59:16;;;;;;;4.30;3.33;;;7.20;69.40;5.60;96807.00;;;;5083526;28;20216;-81
2024/01/22 10:01:46;;;;;;;5.40;3.30;;;7.30;69.20;5.60;96804.00;;;;5085686;28;20202;-81
2024/01/22 10:04:15;;;;;;;3.20;2.90;;;7.30;69.60;5.70;96796.00;;;;5082589;28;20667;-81
2024/01/22 10:06:48;;;;;;;3.50;2.80;;;7.30;69.60;5.70;96790.00;;;;5086419;28;20291;-81
2024/01/22 10:09:17;;;;;;;3.57;3.10;;;7.40;69.40;5.80;96794.00;;;;5080705;28;20684;-82
2024/01/22 10:11:46;;;;;;;5.90;3.33;;;7.40;69.70;5.80;96793.00;;;;5081029;28;20238;-82
2024/01/22 10:14:13;;;;;;;3.00;2.40;;;7.50;69.80;5.90;96785.00;;;;5089353;28;20188;-81
2024/01/22 10:16:42;;;;;;;3.53;2.43;;;7.50;69.80;6.00;96775.00;;;;5084442;28;20627;-82
2024/01/22 10:19:10;;;;;;;3.40;2.40;;;7.60;69.80;6.10;96765.00;;;;5085150;28;20196;-81
2024/01/22 10:21:39;;;;;;;3.17;2.03;;;7.70;69.60;6.10;96752.00;;;;5085320;28;20194;-82
2024/01/22 10:24:10;;;;;;;2.70;1.97;;;7.80;69.20;6.20;96756.00;;;;5086590;28;20180;-82
2024/01/22 10:26:39;;;;;;;3.43;2.30;;;7.80;68.80;6.20;96754.00;;;;5085774;28;20227;-82
2024/01/22 10:29:18;;;;;;;3.07;2.17;;;7.80;68.80;6.30;96747.00;;;;5085303;28;20243;-82
2024/01/22 10:31:59;;;;;;;7.80;2.70;;;7.90;68.50;6.40;96746.00;;;;5086158;28;20188;-82
2024/01/22 10:34:29;;;;;;;4.47;2.60;;;8.00;68.40;6.40;96735.00;;;;5093633;28;20188;-82
2024/01/22 10:37:07;;;;;;;6.70;4.03;;;8.00;68.90;6.50;96718.00;;;;5083794;28;20208;-82
2024/01/22 10:39:37;;;;;;;4.63;3.47;;;8.10;68.40;6.50;96714.00;;;;5085522;28;20660;-82
2024/01/22 10:42:09;;;;;;;6.30;3.93;;;8.10;69.00;6.60;96703.00;;;;5088421;28;20203;-82
2024/01/22 10:44:37;;;;;;;7.47;3.80;;;8.20;69.00;6.70;96700.00;;;;5085237;28;20200;-82
2024/01/22 10:47:05;;;;;;;6.87;3.90;;;8.20;69.10;6.70;96696.00;;;;5088418;28;20257;-81
2024/01/22 10:49:34;;;;;;;6.03;4.17;;;8.30;69.30;6.80;96691.00;;;;5084715;28;20240;-82
2024/01/22 10:52:04;;;;;;;7.70;4.73;;;8.30;69.30;6.90;96694.00;;;;5089421;28;20184;-82
2024/01/22 10:54:35;;;;;;;14.63;7.07;;;8.40;69.10;6.90;96694.00;;;;5089344;28;20203;-82
2024/01/22 10:57:04;;;;;;;12.20;6.53;;;8.50;69.30;7.00;96691.00;;;;5093341;28;20585;-82
2024/01/22 10:59:37;;;;;;;9.67;6.27;;;8.50;69.30;7.10;96685.00;;;;5082162;28;20235;-82
2024/01/22 11:02:06;;;;;;;9.57;6.63;;;8.60;69.30;7.10;96688.00;;;;5073716;28;20193;-82
2024/01/22 11:04:39;;;;;;;10.43;5.80;;;8.60;69.40;7.20;96694.00;;;;5079994;28;20191;-82
2024/01/22 11:07:10;;;;;;;12.23;6.20;;;8.70;69.50;7.30;96679.00;;;;5074793;28;20192;-82